Watertown, SD

2:47 AM CDT on July 26, 2014 (GMT -0500)
East side of Watertown, SD (KSDWATER8) Elev 1732 ft | 44.89 °N, 97.09 °W | Change Station

Current weather conditions updated 10 minutes ago

Clear
Clear
61.3 °F
Feels Like 61.3 °F
N
0.0
Wind Variable Wind from NE

Today is forecast to be nearly the same temperature as yesterday.

Today
High -- | Low -- °F
--% Chance of Precip.
Yesterday
High -- | Low -- °F
Precip. -- in
6:07 AM 9:01 PM
Waning Crescent, 0% visible
Pressure 29.84 in
Visibility 2.5 miles
Clouds Clear
Dew Point 61 °F
Humidity 99%
Rainfall 0.00 in
Snow Depth Not available.
UV 0 out of 12
Pollen 6.50 out of 12
Air Quality Not available.
Flu Activity Not available.
SPECI KATY 260739Z AUTO 09003KT 2 1/2SM BR CLR 17/17 A2984 RMK AO2 T01720172

More Conditions Fewer Conditions

Pressure 29.84 in
Visibility 2.5 miles
Clouds Clear
Dew Point 61 °F
Humidity 99%
Rainfall 0.00 in
Snow Depth Not available.
UV 0 out of 12
Pollen 6.50 out of 12
Air Quality Not available.
Flu Activity Not available.
SPECI KATY 260739Z AUTO 09003KT 2 1/2SM BR CLR 17/17 A2984 RMK AO2 T01720172

More Conditions Fewer Conditions

10-Day Weather Forecast

Almanac

Astronomy

Jul. 26, 2014 Rise Set
Actual Time 6:07 AM CDT 9:01 PM CDT
Civil Twilight 5:33 AM CDT 9:36 PM CDT
Nautical Twilight 4:49 AM CDT 10:19 PM CDT
Astronomical Twilight 3:57 AM CDT 11:11 PM CDT
Moon 6:04 AM CDT 8:33 PM CDT
Length of Visible Light 16h 03m
Length of Day
14h 54m
Tomorrow will be 2m 12s shorter.
Waning Crescent, 0% of the Moon is Illuminated
Today
Waning Crescent
Jul 26
New
Aug 3
First Quarter
Aug 10
Full
Aug 17
Last Quarter

Today's Extremes

State Highs State Lows

Community

WunderPhotos

Upload Photos

1,737,527 photos uploaded!

Nearby

Snow Depth

Station Depth Elevation
Blind Park 1 in 6890 ft

Earthquake Activity

City Distance Mag. Time & Date
No recent earthquake activity has been reported nearby.
Minimum magnitude displayed is 2.5.

Coastal Water Temperatures

Place Temperature
No Stations Reporting

Nearby Weather Stations

Station Location Temp. Dew Point Humidity Wind Precip. Elev Updated Type
East side of Watertown, SD, Watertown, SD 61.3 °F 61 °F 99% NE  at  0.0 mph - / hr 1732 ft 2:36 AM CDT Normal
Turkey Ridge, Watertown, SD 62.3 °F 61 °F 97% ENE  at  2.0 mph 0.00 in / hr 1795 ft 2:39 AM CDT Normal
derby downs, Watertown, SD 65.5 °F 65 °F 97% North  at  0.0 mph - / hr 1810 ft 2:38 AM CDT Normal
South Lake Pelican, Watertown, SD 62.7 °F 62 °F 96% WSW  at  0.0 mph 0.00 in / hr 1726 ft 2:46 AM CDT Rapid Fire
Hamlin County Courthouse, Hayti, SD 64.0 °F 63 °F 95% West  at  0.0 mph 0.00 in / hr 1700 ft 2:47 AM CDT Rapid Fire
Kent, Florence, SD 63.5 °F 62 °F 95% NE  at  0.0 mph 0.00 in / hr 1801 ft 2:40 AM CDT Normal
Rural Summit, Summit, SD 60.6 °F 60 °F 99% ENE  at  0.0 mph - / hr 1913 ft 2:42 AM CDT Normal
Bradley, SD 63.0 °F 63 °F 100% North  at  0.0 mph 0.00 in / hr 1827 ft 4:45 AM UYT Normal

Show More Stations Show Fewer Stations